Time;durP1;ratioP1;P1;durP2;ratioP2;P2;SDS_P1;SDS_P2;PMS_P1;PMS_P2;Temp;Humidity;BMP_temperature;BMP_pressure;BME280_temperature;BME280_humidity;BME280_pressure;Samples;Min_cycle;Max_cycle;Signal;HPM_P1;HPM_P2
2023/09/09 00:01:17;;;;;;;13.30;11.65;;;18.50;99.90;;;;;;5070725;28;20090;-79
2023/09/09 00:03:43;;;;;;;12.65;11.35;;;18.40;99.90;;;;;;5071854;28;20056;-79
2023/09/09 00:06:09;;;;;;;13.55;12.27;;;18.50;99.90;;;;;;5082255;28;20048;-79
2023/09/09 00:08:35;;;;;;;13.45;12.15;;;18.40;99.90;;;;;;5087243;28;20417;-79
2023/09/09 00:11:00;;;;;;;13.48;12.18;;;18.40;99.90;;;;;;5069123;28;20049;-79
2023/09/09 00:13:26;;;;;;;14.15;11.93;;;18.40;99.90;;;;;;5070728;28;20444;-79
2023/09/09 00:15:55;;;;;;;14.65;13.10;;;18.30;99.90;;;;;;5070068;28;20052;-79
2023/09/09 00:18:21;;;;;;;13.35;12.02;;;18.30;99.90;;;;;;5069966;28;20044;-79
2023/09/09 00:20:47;;;;;;;13.10;11.80;;;18.30;99.90;;;;;;5087647;28;20044;-79
2023/09/09 00:23:13;;;;;;;13.32;12.00;;;18.30;99.90;;;;;;5088111;28;20193;-80
2023/09/09 00:25:42;;;;;;;12.80;11.65;;;18.30;99.90;;;;;;5083424;28;20126;-79
2023/09/09 00:28:10;;;;;;;13.68;12.35;;;18.30;99.90;;;;;;5087902;28;20076;-79
2023/09/09 00:30:36;;;;;;;12.73;11.43;;;18.20;99.90;;;;;;5075979;28;20036;-79
2023/09/09 00:33:02;;;;;;;13.88;12.50;;;18.30;99.90;;;;;;5088681;28;20040;-79
2023/09/09 00:35:28;;;;;;;12.85;11.65;;;18.20;99.90;;;;;;5088117;28;20115;-79
2023/09/09 00:37:57;;;;;;;12.98;11.77;;;18.20;99.90;;;;;;5052738;28;20055;-79
2023/09/09 00:40:22;;;;;;;13.90;12.57;;;18.20;99.90;;;;;;5084829;28;20119;-79
2023/09/09 00:42:48;;;;;;;13.02;11.73;;;18.10;99.90;;;;;;5070089;28;20205;-79
2023/09/09 00:45:14;;;;;;;13.65;11.80;;;18.10;99.90;;;;;;5081841;28;20047;-79
2023/09/09 00:47:40;;;;;;;13.07;11.65;;;18.10;99.90;;;;;;5077826;28;20049;-79
2023/09/09 00:50:09;;;;;;;12.85;11.45;;;18.10;99.90;;;;;;5075170;28;20063;-79
2023/09/09 00:52:38;;;;;;;12.85;11.55;;;18.10;99.90;;;;;;5068686;28;20041;-79
2023/09/09 00:55:04;;;;;;;13.27;11.95;;;18.00;99.90;;;;;;5069819;28;20439;-79
2023/09/09 00:57:29;;;;;;;15.20;13.70;;;18.00;99.90;;;;;;5083140;28;20105;-79
2023/09/09 00:59:55;;;;;;;14.30;12.88;;;18.00;99.90;;;;;;5089489;28;20052;-79
2023/09/09 01:02:20;;;;;;;14.35;12.85;;;17.90;99.90;;;;;;5090436;28;20085;-79
2023/09/09 01:04:48;;;;;;;14.35;12.85;;;17.90;99.90;;;;;;5086150;28;20029;-79
2023/09/09 01:07:14;;;;;;;14.50;13.00;;;17.90;99.90;;;;;;5068272;28;20418;-79
2023/09/09 01:09:40;;;;;;;14.65;12.48;;;17.90;99.90;;;;;;5070793;28;20040;-79
2023/09/09 01:12:11;;;;;;;13.48;12.30;;;17.90;99.90;;;;;;5079035;28;20053;-79
2023/09/09 01:14:40;;;;;;;14.17;12.83;;;17.80;99.90;;;;;;5074404;28;20046;-79
2023/09/09 01:17:06;;;;;;;15.20;13.25;;;17.80;99.90;;;;;;5071826;28;20044;-79
2023/09/09 01:19:32;;;;;;;13.02;11.82;;;17.80;99.90;;;;;;5074496;28;20402;-79
2023/09/09 01:22:03;;;;;;;14.32;12.82;;;17.70;99.90;;;;;;5084552;28;20055;-79
2023/09/09 01:24:28;;;;;;;13.77;12.35;;;17.80;99.90;;;;;;5085924;28;20407;-79
2023/09/09 01:26:54;;;;;;;13.98;12.68;;;17.80;99.90;;;;;;5075792;28;20048;-79
2023/09/09 01:29:19;;;;;;;13.95;12.57;;;17.80;99.90;;;;;;5069587;28;20051;-79
2023/09/09 01:31:47;;;;;;;14.40;12.85;;;17.80;99.90;;;;;;5070227;28;20044;-79
2023/09/09 01:34:12;;;;;;;14.57;13.07;;;17.80;99.90;;;;;;5081184;28;20059;-79
2023/09/09 01:36:38;;;;;;;13.43;12.10;;;17.80;99.90;;;;;;5087738;28;20044;-79
2023/09/09 01:39:04;;;;;;;15.32;12.65;;;17.70;99.90;;;;;;5070863;28;20101;-79
2023/09/09 01:41:29;;;;;;;14.95;13.45;;;17.70;99.90;;;;;;5087724;28;20090;-79
2023/09/09 01:43:55;;;;;;;14.73;13.18;;;17.70;99.90;;;;;;5084991;28;20040;-79
2023/09/09 01:46:21;;;;;;;13.38;12.07;;;17.70;99.90;;;;;;5070154;28;20174;-79
2023/09/09 01:48:46;;;;;;;13.93;12.63;;;17.70;99.90;;;;;;5085631;28;20051;-79
2023/09/09 01:51:12;;;;;;;16.65;15.05;;;17.60;99.90;;;;;;5069556;28;20048;-79
2023/09/09 01:53:38;;;;;;;16.25;14.68;;;17.60;99.90;;;;;;5069141;28;20044;-79
2023/09/09 01:56:04;;;;;;;15.32;13.82;;;17.60;99.90;;;;;;5084790;28;20386;-79
2023/09/09 01:58:29;;;;;;;15.13;13.70;;;17.60;99.90;;;;;;5079496;28;20052;-79
2023/09/09 02:00:55;;;;;;;15.30;13.80;;;17.60;99.90;;;;;;5102681;28;20064;-79
2023/09/09 02:03:21;;;;;;;16.00;14.50;;;17.70;99.90;;;;;;5084036;28;20509;-79
2023/09/09 02:05:47;;;;;;;16.63;14.93;;;17.60;99.90;;;;;;5074723;28;20042;-79
2023/09/09 02:08:13;;;;;;;17.25;15.13;;;17.60;99.90;;;;;;5067693;28;20045;-79
2023/09/09 02:10:39;;;;;;;17.00;15.32;;;17.50;99.90;;;;;;5069937;28;20041;-79
2023/09/09 02:13:05;;;;;;;18.40;16.00;;;17.50;99.90;;;;;;5078990;28;20067;-79
2023/09/09 02:15:30;;;;;;;16.98;14.93;;;17.50;99.90;;;;;;5087596;28;20060;-80
2023/09/09 02:17:57;;;;;;;16.17;14.45;;;17.50;99.90;;;;;;5087311;28;20054;-80
2023/09/09 02:20:23;;;;;;;14.65;13.25;;;17.50;99.90;;;;;;5087641;28;20048;-80
2023/09/09 02:22:48;;;;;;;15.48;14.00;;;17.50;99.90;;;;;;5068458;28;20354;-80
2023/09/09 02:25:14;;;;;;;15.40;13.85;;;17.50;99.90;;;;;;5055690;28;20048;-80
2023/09/09 02:27:40;;;;;;;16.92;14.55;;;17.40;99.90;;;;;;5072582;28;20490;-80
2023/09/09 02:30:06;;;;;;;15.60;14.10;;;17.40;99.90;;;;;;5082466;28;20159;-80
2023/09/09 02:32:32;;;;;;;15.68;14.18;;;17.40;99.90;;;;;;5069135;28;20052;-80
2023/09/09 02:34:59;;;;;;;15.50;13.90;;;17.40;99.90;;;;;;5066477;28;20048;-80
2023/09/09 02:37:26;;;;;;;16.42;14.80;;;17.30;99.90;;;;;;5084474;28;20048;-80
2023/09/09 02:39:52;;;;;;;17.30;15.50;;;17.40;99.90;;;;;;5080397;28;20135;-80
2023/09/09 02:42:22;;;;;;;15.98;14.40;;;17.40;99.90;;;;;;5068222;28;20602;-80
2023/09/09 02:44:51;;;;;;;15.98;14.40;;;17.30;99.90;;;;;;5074044;28;20484;-80
2023/09/09 02:47:18;;;;;;;17.45;15.65;;;17.30;99.90;;;;;;5076791;28;20051;-79
2023/09/09 02:49:44;;;;;;;17.15;15.52;;;17.30;99.90;;;;;;5067867;28;20060;-80
2023/09/09 02:52:10;;;;;;;18.33;16.50;;;17.30;99.90;;;;;;5080883;28;20354;-80
2023/09/09 02:54:37;;;;;;;17.75;15.88;;;17.40;99.90;;;;;;5084979;28;20043;-80
2023/09/09 02:57:03;;;;;;;18.30;16.55;;;17.20;99.90;;;;;;5067094;28;20514;-80
2023/09/09 02:59:31;;;;;;;18.90;16.90;;;17.20;99.90;;;;;;5066836;28;20102;-80
2023/09/09 03:01:56;;;;;;;20.25;18.13;;;17.20;99.90;;;;;;5067463;28;20040;-80
2023/09/09 03:04:22;;;;;;;16.83;15.10;;;17.10;99.90;;;;;;5066274;28;20068;-80
2023/09/09 03:06:47;;;;;;;17.73;15.98;;;17.20;99.90;;;;;;5077932;28;20044;-80
2023/09/09 03:09:14;;;;;;;16.52;15.00;;;17.10;99.90;;;;;;5074154;28;20102;-80
2023/09/09 03:11:39;;;;;;;16.42;14.52;;;17.10;99.90;;;;;;5069605;28;20037;-80
2023/09/09 03:14:05;;;;;;;16.85;15.15;;;17.10;99.90;;;;;;5072587;28;20417;-80
2023/09/09 03:16:30;;;;;;;17.80;15.57;;;17.10;99.90;;;;;;5082351;28;20055;-79
2023/09/09 03:18:56;;;;;;;18.02;16.13;;;17.10;99.90;;;;;;5077629;28;20395;-80
2023/09/09 03:21:22;;;;;;;17.15;15.45;;;17.10;99.90;;;;;;5068156;28;20127;-80
2023/09/09 03:23:47;;;;;;;17.98;16.17;;;17.00;99.90;;;;;;5086088;28;20452;-80
2023/09/09 03:26:18;;;;;;;17.55;15.80;;;17.00;99.90;;;;;;5082158;28;20041;-80
2023/09/09 03:28:45;;;;;;;16.47;14.87;;;17.00;99.90;;;;;;5068891;28;20045;-80
2023/09/09 03:31:11;;;;;;;17.52;15.45;;;17.00;99.90;;;;;;5070984;28;20133;-81
2023/09/09 03:33:37;;;;;;;17.83;16.00;;;17.00;99.90;;;;;;5071103;28;20075;-80
2023/09/09 03:36:03;;;;;;;17.52;15.73;;;17.00;99.90;;;;;;5083696;28;20112;-80
2023/09/09 03:38:29;;;;;;;19.00;17.10;;;17.00;99.90;;;;;;5070410;28;20102;-80
2023/09/09 03:40:54;;;;;;;17.67;16.00;;;16.90;99.90;;;;;;5074338;28;20044;-80
2023/09/09 03:43:20;;;;;;;17.70;16.00;;;16.90;99.90;;;;;;5079293;28;20033;-80
2023/09/09 03:45:45;;;;;;;18.50;16.60;;;16.90;99.90;;;;;;5069311;28;20494;-80
2023/09/09 03:48:11;;;;;;;17.15;15.32;;;16.90;99.90;;;;;;5070165;28;20086;-80
2023/09/09 03:50:37;;;;;;;17.73;16.00;;;16.90;99.90;;;;;;5082421;28;20056;-80
2023/09/09 03:53:02;;;;;;;18.08;16.38;;;16.90;99.90;;;;;;5071447;28;20521;-80
2023/09/09 03:55:28;;;;;;;17.92;16.15;;;16.90;99.90;;;;;;5071009;28;20047;-80
2023/09/09 03:57:54;;;;;;;19.10;17.20;;;16.80;99.90;;;;;;5078727;28;20046;-80
2023/09/09 04:00:19;;;;;;;18.70;16.83;;;16.80;99.90;;;;;;5089740;28;20594;-80
2023/09/09 04:02:45;;;;;;;18.38;16.40;;;16.80;99.90;;;;;;5072090;28;20090;-79
2023/09/09 04:05:11;;;;;;;18.25;16.33;;;16.80;99.90;;;;;;5081076;28;20082;-80
2023/09/09 04:07:37;;;;;;;19.05;17.25;;;16.80;99.90;;;;;;5081639;28;20428;-80
2023/09/09 04:10:03;;;;;;;18.52;16.73;;;16.80;99.90;;;;;;5089207;28;20047;-79
2023/09/09 04:12:29;;;;;;;18.67;16.77;;;16.80;99.90;;;;;;5079067;28;20083;-80
2023/09/09 04:14:54;;;;;;;19.75;17.83;;;16.70;99.90;;;;;;5075154;28;20071;-80
2023/09/09 04:17:20;;;;;;;20.27;17.42;;;16.70;99.90;;;;;;5081841;28;20037;-80
2023/09/09 04:19:45;;;;;;;19.95;18.10;;;16.80;99.90;;;;;;5070325;28;20041;-80
2023/09/09 04:22:11;;;;;;;18.40;16.48;;;16.70;99.90;;;;;;5070034;28;20044;-79
2023/09/09 04:24:37;;;;;;;20.70;18.27;;;16.70;99.90;;;;;;5074442;28;20166;-80
2023/09/09 04:27:02;;;;;;;20.08;17.98;;;16.70;99.90;;;;;;5070224;28;20041;-80
2023/09/09 04:29:28;;;;;;;19.67;17.77;;;16.70;99.90;;;;;;5069077;28;20063;-80
2023/09/09 04:31:54;;;;;;;22.30;19.48;;;16.70;99.90;;;;;;5073601;28;20128;-80
2023/09/09 04:34:20;;;;;;;22.70;20.45;;;16.70;99.90;;;;;;5068664;28;20040;-80
2023/09/09 04:36:46;;;;;;;23.38;21.08;;;16.70;99.90;;;;;;5086931;28;20040;-80
2023/09/09 04:39:15;;;;;;;23.73;21.23;;;16.70;99.90;;;;;;5088514;28;20050;-81
2023/09/09 04:41:42;;;;;;;21.65;19.45;;;16.60;99.90;;;;;;5080945;28;20090;-80
2023/09/09 04:44:08;;;;;;;22.30;19.95;;;16.70;99.90;;;;;;5069400;28;20561;-80
2023/09/09 04:46:34;;;;;;;24.42;21.92;;;16.70;99.90;;;;;;5069129;28;20404;-80
2023/09/09 04:48:59;;;;;;;21.77;19.58;;;16.60;99.90;;;;;;5068946;28;20060;-80
2023/09/09 04:51:25;;;;;;;24.17;21.60;;;16.60;99.90;;;;;;5083150;28;20052;-81
2023/09/09 04:53:51;;;;;;;23.98;21.50;;;16.60;99.90;;;;;;5071091;28;20063;-80
2023/09/09 04:56:16;;;;;;;23.52;21.23;;;16.60;99.90;;;;;;5071534;28;20048;-80
2023/09/09 04:58:42;;;;;;;33.28;23.40;;;16.50;99.90;;;;;;5076860;28;20125;-81
2023/09/09 05:01:09;;;;;;;24.30;21.88;;;16.50;99.90;;;;;;5083765;28;20525;-80
2023/09/09 05:03:34;;;;;;;25.27;22.60;;;16.60;99.90;;;;;;5073433;28;20186;-80
2023/09/09 05:06:00;;;;;;;23.80;21.20;;;16.60;99.90;;;;;;5081887;28;20124;-80
2023/09/09 05:08:26;;;;;;;23.08;20.67;;;16.50;99.90;;;;;;5071491;28;20048;-80
2023/09/09 05:10:51;;;;;;;24.70;22.15;;;16.50;99.90;;;;;;5076759;28;20173;-80
2023/09/09 05:13:17;;;;;;;23.98;21.48;;;16.60;99.90;;;;;;5088249;28;20127;-80
2023/09/09 05:15:42;;;;;;;23.92;21.33;;;16.60;99.90;;;;;;5077228;28;20124;-81
2023/09/09 05:18:08;;;;;;;27.13;24.30;;;16.60;99.90;;;;;;5075841;28;20044;-80
2023/09/09 05:20:33;;;;;;;27.75;24.33;;;16.60;99.90;;;;;;5067931;28;20045;-81
2023/09/09 05:22:59;;;;;;;25.70;22.83;;;16.60;99.90;;;;;;5089590;28;20040;-81
2023/09/09 05:25:25;;;;;;;25.33;22.65;;;16.70;99.90;;;;;;5083494;28;20149;-82
2023/09/09 05:27:50;;;;;;;25.17;22.67;;;16.70;99.90;;;;;;5067162;28;20067;-81
2023/09/09 05:30:16;;;;;;;27.13;24.38;;;16.70;99.90;;;;;;5083574;28;20051;-80
2023/09/09 05:32:41;;;;;;;29.70;26.60;;;16.70;99.90;;;;;;5072208;28;20040;-81
2023/09/09 05:35:10;;;;;;;27.83;24.92;;;16.80;99.90;;;;;;5075522;28;20032;-81
2023/09/09 05:37:36;;;;;;;26.55;23.85;;;16.80;99.90;;;;;;5078530;28;20999;-80
2023/09/09 05:40:02;;;;;;;27.15;24.23;;;16.80;99.90;;;;;;5079460;28;20127;-80
2023/09/09 05:42:28;;;;;;;25.58;22.92;;;16.80;99.90;;;;;;5071984;28;20059;-80
2023/09/09 05:44:54;;;;;;;27.73;24.85;;;16.90;99.90;;;;;;5081310;28;20036;-81
2023/09/09 05:47:19;;;;;;;26.50;23.73;;;16.90;99.90;;;;;;5089495;28;20036;-81
2023/09/09 05:49:45;;;;;;;25.67;22.38;;;17.00;99.90;;;;;;5077194;28;20062;-81
2023/09/09 05:52:12;;;;;;;30.60;23.13;;;17.00;99.90;;;;;;5076746;28;20052;-85
2023/09/09 05:54:38;;;;;;;25.88;22.90;;;17.00;99.90;;;;;;5069851;28;20128;-84
2023/09/09 05:57:04;;;;;;;27.60;24.58;;;17.10;99.90;;;;;;5080281;28;20201;-83
2023/09/09 05:59:30;;;;;;;26.58;24.00;;;17.10;99.90;;;;;;5069889;28;20056;-83
2023/09/09 06:01:56;;;;;;;26.55;23.85;;;17.20;99.90;;;;;;5069732;28;20037;-83
2023/09/09 06:04:21;;;;;;;27.60;24.73;;;17.30;99.90;;;;;;5077320;28;20159;-83
2023/09/09 06:06:48;;;;;;;28.90;25.90;;;17.30;99.90;;;;;;5069403;28;20048;-82
2023/09/09 06:09:13;;;;;;;29.15;26.25;;;17.40;99.90;;;;;;5068779;28;20041;-81
2023/09/09 06:11:39;;;;;;;30.02;27.00;;;17.50;99.90;;;;;;5068081;28;20053;-81
2023/09/09 06:14:04;;;;;;;29.23;26.23;;;17.60;99.90;;;;;;5068125;28;20506;-81
2023/09/09 06:16:31;;;;;;;29.83;26.85;;;17.60;99.90;;;;;;5067372;28;20406;-81
2023/09/09 06:18:56;;;;;;;30.83;27.63;;;17.70;99.90;;;;;;5081266;28;20040;-81
2023/09/09 06:21:22;;;;;;;34.08;30.58;;;17.90;99.90;;;;;;5069806;28;20059;-81
2023/09/09 06:23:47;;;;;;;33.97;30.45;;;18.00;99.90;;;;;;5067174;28;20051;-81
2023/09/09 06:26:13;;;;;;;33.92;30.42;;;18.10;99.90;;;;;;5067449;28;20048;-81
2023/09/09 06:28:38;;;;;;;33.22;29.80;;;18.20;99.90;;;;;;5073110;28;20609;-81
2023/09/09 06:31:04;;;;;;;33.67;29.38;;;18.30;99.90;;;;;;5083215;28;20043;-81
2023/09/09 06:33:29;;;;;;;32.13;28.80;;;18.50;99.90;;;;;;5066706;28;20048;-81
2023/09/09 06:35:55;;;;;;;36.53;32.10;;;18.60;99.90;;;;;;5096335;28;20044;-81
2023/09/09 06:38:21;;;;;;;35.35;31.65;;;18.70;99.90;;;;;;5074807;28;20055;-81
2023/09/09 06:40:48;;;;;;;36.17;32.00;;;18.90;99.90;;;;;;5067764;28;20135;-81
2023/09/09 06:43:19;;;;;;;33.58;30.13;;;19.00;99.90;;;;;;5068178;28;20047;-81
2023/09/09 06:45:44;;;;;;;35.87;31.83;;;19.10;99.90;;;;;;5067880;28;20098;-82
2023/09/09 06:48:10;;;;;;;33.15;29.88;;;19.20;99.90;;;;;;5066738;28;20274;-81
2023/09/09 06:50:36;;;;;;;31.83;28.63;;;19.30;99.90;;;;;;5067982;28;20052;-81
2023/09/09 06:53:02;;;;;;;33.13;29.55;;;19.40;99.90;;;;;;5080968;28;20067;-81
2023/09/09 06:55:29;;;;;;;35.50;30.77;;;19.60;99.90;;;;;;5087976;28;20052;-81
2023/09/09 06:57:54;;;;;;;35.00;31.48;;;19.70;99.90;;;;;;5088287;28;20040;-81
2023/09/09 07:00:20;;;;;;;35.58;31.67;;;19.80;99.90;;;;;;5088044;28;20159;-81
2023/09/09 07:02:45;;;;;;;32.33;29.00;;;19.90;99.90;;;;;;5088004;28;20173;-82
2023/09/09 07:05:16;;;;;;;34.88;31.20;;;20.10;99.90;;;;;;5068954;28;20051;-82
2023/09/09 07:07:42;;;;;;;33.00;29.63;;;20.20;99.90;;;;;;5086897;28;20112;-82
2023/09/09 07:10:08;;;;;;;34.15;30.02;;;20.30;99.90;;;;;;5085705;28;20048;-81
2023/09/09 07:12:34;;;;;;;32.58;29.35;;;20.40;99.90;;;;;;5068080;28;20052;-82
2023/09/09 07:14:59;;;;;;;32.92;29.63;;;20.50;99.90;;;;;;5065833;28;20052;-82
2023/09/09 07:17:25;;;;;;;32.13;29.08;;;20.60;99.90;;;;;;5067904;28;20093;-82
2023/09/09 07:19:51;;;;;;;33.13;29.90;;;20.80;99.90;;;;;;5066915;28;20063;-81
2023/09/09 07:22:16;;;;;;;33.35;29.88;;;20.80;99.90;;;;;;5067795;28;20097;-82
2023/09/09 07:24:42;;;;;;;32.28;29.15;;;21.00;99.90;;;;;;5067494;28;20040;-82
2023/09/09 07:27:07;;;;;;;31.70;28.67;;;21.00;99.90;;;;;;5067653;28;20048;-81
2023/09/09 07:29:33;;;;;;;32.55;29.42;;;21.20;99.90;;;;;;5067303;28;20449;-82
2023/09/09 07:31:58;;;;;;;33.03;29.63;;;21.20;99.90;;;;;;5067822;28;20080;-81
2023/09/09 07:34:24;;;;;;;32.13;28.92;;;21.30;99.90;;;;;;5067398;28;20051;-81
2023/09/09 07:36:50;;;;;;;32.13;28.75;;;21.50;99.90;;;;;;5067516;28;20846;-81
2023/09/09 07:39:16;;;;;;;31.80;28.65;;;21.50;99.90;;;;;;5067356;28;20045;-82
2023/09/09 07:41:42;;;;;;;31.55;28.38;;;21.60;99.90;;;;;;5048822;28;20048;-81
2023/09/09 07:44:07;;;;;;;31.55;28.50;;;21.80;99.90;;;;;;5068012;28;20040;-82
2023/09/09 07:46:33;;;;;;;33.03;28.95;;;21.90;99.90;;;;;;5067361;28;20125;-81
2023/09/09 07:48:58;;;;;;;32.47;29.23;;;22.10;99.90;;;;;;5066757;28;20127;-81
2023/09/09 07:51:24;;;;;;;32.33;29.35;;;22.20;99.90;;;;;;5067491;28;20045;-81
2023/09/09 07:53:52;;;;;;;32.75;29.65;;;22.20;99.90;;;;;;5067130;28;20147;-82
2023/09/09 07:56:17;;;;;;;32.65;29.38;;;22.30;99.90;;;;;;5067526;28;20109;-82
2023/09/09 07:58:43;;;;;;;31.98;28.92;;;22.30;99.90;;;;;;5067207;28;20444;-82
2023/09/09 08:01:10;;;;;;;31.60;28.55;;;22.30;99.90;;;;;;5070400;28;20051;-82
2023/09/09 08:03:35;;;;;;;33.22;29.50;;;22.40;99.90;;;;;;5079715;28;20505;-82
2023/09/09 08:06:04;;;;;;;31.23;28.15;;;22.60;99.90;;;;;;5067802;28;20040;-82
2023/09/09 08:08:30;;;;;;;32.45;29.50;;;22.70;99.90;;;;;;5067186;28;20044;-82
2023/09/09 08:10:56;;;;;;;34.70;31.15;;;22.80;99.90;;;;;;5067068;28;20040;-82
2023/09/09 08:13:22;;;;;;;34.75;31.23;;;23.00;99.90;;;;;;5066866;28;20178;-82
2023/09/09 08:15:47;;;;;;;33.63;30.13;;;23.00;99.90;;;;;;5068604;28;20053;-82
2023/09/09 08:18:14;;;;;;;33.60;30.20;;;23.10;99.90;;;;;;5070258;28;20040;-82
2023/09/09 08:20:40;;;;;;;33.47;30.35;;;23.30;99.90;;;;;;5071116;28;20846;-82
2023/09/09 08:23:06;;;;;;;35.47;31.75;;;23.30;99.90;;;;;;5086792;28;20044;-82
2023/09/09 08:25:32;;;;;;;32.83;29.77;;;23.40;99.90;;;;;;5069418;28;20567;-82
2023/09/09 08:28:03;;;;;;;34.75;31.40;;;23.40;99.90;;;;;;5070931;28;20111;-83
2023/09/09 08:30:29;;;;;;;35.07;31.70;;;23.50;99.90;;;;;;5070450;28;20148;-83
2023/09/09 08:32:55;;;;;;;35.53;32.00;;;23.60;99.90;;;;;;5070917;28;20547;-83
2023/09/09 08:35:22;;;;;;;34.83;31.25;;;23.70;99.90;;;;;;5072310;28;20056;-83
2023/09/09 08:37:48;;;;;;;36.20;32.60;;;23.90;99.90;;;;;;5072238;28;20041;-84
2023/09/09 08:40:14;;;;;;;36.45;33.08;;;24.00;99.90;;;;;;5091037;28;20370;-84
2023/09/09 08:43:07;;;;;;;36.67;32.92;;;24.10;99.90;;;;;;5090443;28;20611;-83
2023/09/09 08:45:33;;;;;;;36.65;32.67;;;24.20;99.90;;;;;;5090771;28;20052;-83
2023/09/09 08:48:03;;;;;;;34.05;30.65;;;24.30;99.90;;;;;;5090600;28;20517;-85
2023/09/09 08:50:31;;;;;;;40.08;36.17;;;24.40;99.90;;;;;;5090185;28;20048;-84
2023/09/09 08:52:59;;;;;;;38.00;34.30;;;24.50;99.90;;;;;;5087553;28;20155;-82
2023/09/09 08:55:25;;;;;;;38.10;34.10;;;24.60;99.90;;;;;;5069932;28;20043;-82
2023/09/09 08:57:52;;;;;;;40.60;36.45;;;24.70;99.90;;;;;;5070160;28;20466;-82
2023/09/09 09:00:18;;;;;;;39.08;35.20;;;24.70;99.90;;;;;;5070048;28;20040;-83
2023/09/09 09:02:46;;;;;;;35.28;31.85;;;24.80;99.90;;;;;;5070049;28;20746;-82
2023/09/09 09:05:14;;;;;;;32.88;29.38;;;24.90;99.90;;;;;;5069829;28;20167;-83
2023/09/09 09:07:40;;;;;;;35.83;32.10;;;24.90;99.90;;;;;;5052480;28;20071;-83
2023/09/09 09:10:06;;;;;;;34.95;31.67;;;25.00;99.90;;;;;;5070757;28;20530;-81
2023/09/09 09:12:35;;;;;;;36.13;32.38;;;25.20;99.90;;;;;;5078629;28;20051;-80
2023/09/09 09:15:01;;;;;;;35.90;32.13;;;25.30;99.90;;;;;;5051923;28;20075;-79
2023/09/09 09:17:30;;;;;;;32.78;29.48;;;25.50;99.90;;;;;;5069120;28;20057;-80
2023/09/09 09:19:56;;;;;;;34.80;31.50;;;25.60;99.90;;;;;;5069605;28;20040;-79
2023/09/09 09:22:22;;;;;;;34.88;31.30;;;25.60;99.90;;;;;;5071191;28;20416;-79
2023/09/09 09:24:49;;;;;;;34.47;31.00;;;25.60;99.90;;;;;;5052589;28;20518;-80
2023/09/09 09:27:16;;;;;;;34.08;30.67;;;25.70;99.90;;;;;;5074791;28;20043;-80
2023/09/09 09:29:47;;;;;;;34.45;30.83;;;25.80;99.90;;;;;;5088212;28;20131;-79
2023/09/09 09:32:15;;;;;;;33.38;29.95;;;25.80;99.90;;;;;;5069948;28;20048;-79
2023/09/09 09:34:41;;;;;;;33.63;30.25;;;25.90;99.90;;;;;;5069575;28;20621;-81
2023/09/09 09:37:12;;;;;;;32.85;29.77;;;26.00;99.90;;;;;;5069152;28;20040;-81
2023/09/09 09:39:38;;;;;;;32.17;29.08;;;26.10;99.90;;;;;;5076654;28;20136;-79
2023/09/09 09:42:05;;;;;;;30.90;27.90;;;26.20;99.90;;;;;;5079999;28;20109;-81
2023/09/09 09:44:31;;;;;;;28.48;25.88;;;26.20;99.90;;;;;;5089177;28;20048;-82
2023/09/09 09:47:04;;;;;;;28.73;25.88;;;26.30;99.90;;;;;;5086168;28;20044;-83
2023/09/09 09:49:38;;;;;;;31.00;28.10;;;26.30;99.90;;;;;;5068499;28;20071;-83
2023/09/09 09:52:05;;;;;;;32.25;28.95;;;26.50;99.90;;;;;;5067733;28;20083;-83
2023/09/09 09:54:32;;;;;;;30.20;27.05;;;26.50;99.90;;;;;;5067064;28;20112;-83
2023/09/09 09:57:02;;;;;;;30.33;27.00;;;26.50;99.90;;;;;;5068872;28;20049;-84
2023/09/09 09:59:33;;;;;;;29.75;26.75;;;26.60;99.90;;;;;;5068009;28;20115;-83
2023/09/09 10:02:00;;;;;;;29.17;25.80;;;26.60;99.90;;;;;;5070082;28;20090;-84
2023/09/09 10:04:30;;;;;;;29.98;27.02;;;26.60;99.90;;;;;;5073826;28;20048;-84
2023/09/09 10:06:59;;;;;;;30.27;27.15;;;26.60;99.90;;;;;;5067289;28;20052;-83
2023/09/09 10:09:33;;;;;;;32.35;28.65;;;26.60;99.90;;;;;;5068634;28;20056;-84
2023/09/09 10:12:22;;;;;;;30.08;27.17;;;26.70;99.90;;;;;;5068367;28;20047;-84
2023/09/09 10:14:50;;;;;;;29.60;26.70;;;26.70;99.90;;;;;;5068154;28;20499;-85
2023/09/09 10:17:17;;;;;;;30.92;27.73;;;26.80;99.90;;;;;;5069844;28;20208;-84
2023/09/09 10:19:43;;;;;;;32.03;28.85;;;26.80;99.90;;;;;;5067138;28;20044;-82
2023/09/09 10:22:10;;;;;;;27.63;25.02;;;26.90;99.90;;;;;;5084771;28;20440;-81
2023/09/09 10:24:38;;;;;;;25.92;23.42;;;27.00;99.90;;;;;;5075660;28;20458;-81
2023/09/09 10:27:06;;;;;;;26.10;23.80;;;27.20;99.90;;;;;;5068277;28;20072;-83
2023/09/09 10:29:33;;;;;;;23.35;21.23;;;27.30;99.90;;;;;;5071442;28;20037;-82
2023/09/09 10:32:04;;;;;;;23.58;21.33;;;27.30;99.90;;;;;;5068199;28;20076;-83
2023/09/09 10:34:37;;;;;;;22.35;20.08;;;27.30;99.90;;;;;;5075429;28;20041;-82
2023/09/09 10:37:03;;;;;;;21.38;18.63;;;27.40;99.90;;;;;;5087360;28;20048;-84
2023/09/09 10:39:31;;;;;;;25.58;18.33;;;27.50;99.90;;;;;;5087975;28;20046;-84
2023/09/09 10:41:58;;;;;;;20.45;18.67;;;27.60;99.90;;;;;;5079771;28;20460;-81
2023/09/09 10:44:24;;;;;;;20.20;17.50;;;27.70;99.90;;;;;;5067313;28;20084;-81
2023/09/09 10:46:56;;;;;;;19.30;17.60;;;27.60;99.90;;;;;;5068202;28;20080;-81
2023/09/09 10:49:27;;;;;;;18.48;16.55;;;27.70;99.90;;;;;;5067375;28;20411;-81
2023/09/09 10:51:52;;;;;;;22.67;20.45;;;27.70;99.90;;;;;;5067734;28;20106;-81
2023/09/09 10:54:21;;;;;;;20.50;18.65;;;27.60;99.90;;;;;;5067634;28;20052;-81
2023/09/09 10:56:48;;;;;;;19.75;17.67;;;27.70;99.90;;;;;;5069584;28;20076;-82
2023/09/09 10:59:23;;;;;;;20.15;18.23;;;27.80;99.90;;;;;;5072199;28;20098;-81
2023/09/09 11:02:12;;;;;;;18.92;17.15;;;28.00;99.90;;;;;;5066427;28;20052;-81
2023/09/09 11:04:39;;;;;;;20.20;18.30;;;27.90;99.90;;;;;;5066282;28;20040;-82
2023/09/09 11:07:13;;;;;;;18.98;17.20;;;27.90;99.90;;;;;;5067941;28;20583;-82
2023/09/09 11:09:50;;;;;;;18.25;16.50;;;28.00;99.90;;;;;;5065240;28;20063;-82
2023/09/09 11:12:16;;;;;;;19.80;17.90;;;28.10;99.90;;;;;;5066274;28;20406;-82
2023/09/09 11:14:47;;;;;;;17.35;15.70;;;28.00;99.90;;;;;;5067187;28;20055;-80
2023/09/09 11:17:13;;;;;;;15.75;14.38;;;28.10;99.90;;;;;;5071905;28;20036;-82
2023/09/09 11:19:41;;;;;;;16.05;14.57;;;28.10;99.90;;;;;;5081795;28;20115;-81
2023/09/09 11:22:08;;;;;;;14.90;13.48;;;28.20;99.90;;;;;;5067899;28;20048;-82
2023/09/09 11:24:34;;;;;;;14.93;12.82;;;28.40;99.90;;;;;;5067626;28;20558;-82
2023/09/09 11:27:01;;;;;;;14.95;13.45;;;28.50;99.90;;;;;;5083078;28;20055;-82
2023/09/09 11:29:29;;;;;;;12.65;11.45;;;28.50;99.90;;;;;;5087124;28;20044;-81
2023/09/09 11:31:54;;;;;;;16.15;11.70;;;28.50;99.90;;;;;;5087742;28;20666;-82
2023/09/09 11:34:31;;;;;;;13.13;11.10;;;28.60;99.90;;;;;;5087079;28;20117;-82
2023/09/09 11:36:58;;;;;;;13.93;11.68;;;28.60;99.90;;;;;;5086644;28;20063;-82
2023/09/09 11:39:23;;;;;;;13.32;11.98;;;28.60;99.90;;;;;;5068502;28;20109;-82
2023/09/09 11:41:49;;;;;;;11.40;10.30;;;28.70;99.90;;;;;;5067762;28;20040;-81
2023/09/09 11:44:14;;;;;;;11.43;10.05;;;28.70;99.90;;;;;;5067692;28;20139;-82
2023/09/09 11:46:42;;;;;;;13.25;11.93;;;28.60;99.90;;;;;;5067797;28;20032;-79
2023/09/09 11:49:09;;;;;;;12.30;9.95;;;28.60;99.90;;;;;;5066757;28;20064;-80
2023/09/09 11:51:35;;;;;;;13.40;11.75;;;28.70;99.90;;;;;;5082956;28;20355;-81
2023/09/09 11:54:02;;;;;;;12.15;10.93;;;28.70;99.20;;;;;;5088918;28;20047;-80
2023/09/09 11:56:29;;;;;;;14.35;11.02;;;28.80;98.60;;;;;;5079146;28;20048;-80
2023/09/09 11:58:55;;;;;;;11.90;10.75;;;28.70;98.20;;;;;;5074199;28;20056;-79
2023/09/09 12:01:21;;;;;;;12.68;11.45;;;28.90;98.30;;;;;;5070570;28;20119;-80
2023/09/09 12:03:51;;;;;;;13.50;12.07;;;28.90;97.80;;;;;;5070728;28;20134;-80
2023/09/09 12:06:22;;;;;;;13.52;11.27;;;28.70;97.10;;;;;;5054297;28;20143;-80
2023/09/09 12:08:49;;;;;;;13.80;11.37;;;28.90;96.90;;;;;;5078965;28;20043;-80
2023/09/09 12:11:16;;;;;;;12.32;11.10;;;28.90;97.10;;;;;;5077392;28;20509;-81
2023/09/09 12:13:44;;;;;;;11.60;10.50;;;29.00;97.00;;;;;;5086654;28;20044;-80
2023/09/09 12:16:10;;;;;;;14.02;12.60;;;29.10;96.80;;;;;;5070964;28;20438;-81
2023/09/09 12:18:36;;;;;;;13.02;11.60;;;29.10;95.50;;;;;;5079110;28;20051;-81
2023/09/09 12:21:03;;;;;;;12.85;11.35;;;29.10;94.90;;;;;;5091199;28;20056;-82
2023/09/09 12:23:34;;;;;;;13.10;10.90;;;27.30;96.20;;;;;;5067141;28;20172;-82
2023/09/09 12:26:13;;;;;;;10.70;9.50;;;29.00;94.10;;;;;;5077471;28;20036;-83